createdAt,value
2019-03-29T00:01:06.764Z,37.60
2019-03-29T00:03:35.247Z,36.90
2019-03-29T00:06:03.738Z,35.57
2019-03-29T00:08:32.142Z,38.93
2019-03-29T00:11:00.548Z,39.87
2019-03-29T00:13:28.975Z,37.67
2019-03-29T00:15:57.372Z,39.20
2019-03-29T00:18:25.766Z,35.77
2019-03-29T00:20:54.199Z,37.47
2019-03-29T00:23:23.085Z,36.30
2019-03-29T00:25:51.703Z,35.40
2019-03-29T00:28:20.122Z,34.97
2019-03-29T00:30:48.567Z,36.50
2019-03-29T00:33:16.989Z,35.17
2019-03-29T00:35:45.421Z,34.07
2019-03-29T00:38:13.826Z,36.20
2019-03-29T00:40:42.299Z,37.03
2019-03-29T00:43:10.741Z,32.73
2019-03-29T00:45:39.273Z,33.93
2019-03-29T00:48:07.697Z,32.97
2019-03-29T00:50:36.124Z,33.40
2019-03-29T00:53:04.600Z,34.20
2019-03-29T00:55:32.995Z,33.43
2019-03-29T00:58:01.446Z,32.90
2019-03-29T01:00:31.575Z,33.70
2019-03-29T01:02:59.984Z,31.10
2019-03-29T01:05:28.470Z,33.43
2019-03-29T01:08:07.071Z,32.50
2019-03-29T01:10:27.141Z,30.73
2019-03-29T01:12:55.553Z,33.23
2019-03-29T01:15:23.976Z,31.10
2019-03-29T01:17:52.370Z,30.63
2019-03-29T01:20:21.202Z,29.77
2019-03-29T01:22:50.440Z,31.20
2019-03-29T01:25:18.854Z,29.80
2019-03-29T01:27:47.249Z,29.50
2019-03-29T01:30:15.782Z,28.47
2019-03-29T01:32:44.188Z,27.90
2019-03-29T01:35:12.751Z,28.77
2019-03-29T01:37:41.175Z,28.60
2019-03-29T01:40:09.809Z,28.93
2019-03-29T01:42:38.222Z,29.80
2019-03-29T01:45:08.233Z,29.30
2019-03-29T01:47:36.728Z,28.77
2019-03-29T01:50:07.958Z,28.40
2019-03-29T01:52:36.576Z,28.03
2019-03-29T01:55:07.877Z,26.10
2019-03-29T01:57:36.379Z,29.70
2019-03-29T02:00:06.210Z,30.03
2019-03-29T02:02:34.634Z,27.00
2019-03-29T02:05:03.926Z,27.47
2019-03-29T02:07:32.340Z,28.87
2019-03-29T02:10:00.800Z,29.00
2019-03-29T02:12:29.181Z,28.50
2019-03-29T02:14:57.664Z,29.53
2019-03-29T02:17:26.101Z,27.97
2019-03-29T02:19:54.601Z,29.47
2019-03-29T02:22:23.010Z,29.27
2019-03-29T02:24:51.503Z,29.43
2019-03-29T02:27:19.918Z,31.37
2019-03-29T02:29:48.363Z,30.17
2019-03-29T02:32:16.749Z,28.33
2019-03-29T02:34:45.156Z,32.73
2019-03-29T02:37:13.570Z,29.60
2019-03-29T02:39:41.981Z,29.53
2019-03-29T02:42:10.395Z,30.03
2019-03-29T02:44:38.795Z,28.60
2019-03-29T02:47:07.207Z,28.23
2019-03-29T02:49:35.624Z,28.97
2019-03-29T02:52:04.290Z,27.13
2019-03-29T02:54:32.698Z,29.20
2019-03-29T02:57:01.133Z,28.57
2019-03-29T02:59:29.530Z,28.23
2019-03-29T03:01:58.007Z,26.80
2019-03-29T03:04:26.426Z,26.50
2019-03-29T03:06:54.828Z,26.30
2019-03-29T03:09:23.240Z,27.00
2019-03-29T03:11:51.735Z,24.40
2019-03-29T03:14:20.127Z,24.20
2019-03-29T03:16:48.549Z,24.87
2019-03-29T03:19:16.941Z,23.07
2019-03-29T03:21:45.417Z,24.20
2019-03-29T03:24:13.818Z,26.10
2019-03-29T03:26:42.210Z,23.80
2019-03-29T03:29:10.637Z,23.90
2019-03-29T03:31:39.054Z,23.53
2019-03-29T03:34:07.601Z,24.00
2019-03-29T03:36:36.017Z,26.30
2019-03-29T03:39:07.455Z,27.37
2019-03-29T03:41:35.912Z,26.83
2019-03-29T03:44:04.397Z,24.43
2019-03-29T03:46:32.906Z,24.37
2019-03-29T03:49:01.323Z,24.97
2019-03-29T03:51:29.906Z,22.70
2019-03-29T03:53:58.408Z,25.63
2019-03-29T03:56:28.527Z,24.60
2019-03-29T03:58:58.058Z,24.00
2019-03-29T04:01:26.467Z,21.93
2019-03-29T04:03:54.881Z,22.97
2019-03-29T04:06:23.300Z,21.33
2019-03-29T04:08:51.735Z,22.00
2019-03-29T04:11:20.144Z,20.63
2019-03-29T04:13:48.541Z,21.50
2019-03-29T04:16:16.981Z,20.80
2019-03-29T04:18:45.421Z,20.87
2019-03-29T04:21:13.869Z,21.97
2019-03-29T04:23:42.311Z,21.83
2019-03-29T04:26:10.718Z,20.70
2019-03-29T04:28:39.128Z,21.23
2019-03-29T04:31:07.549Z,20.17
2019-03-29T04:33:35.959Z,22.60
2019-03-29T04:36:04.404Z,22.00
2019-03-29T04:38:32.824Z,21.70
2019-03-29T04:41:01.223Z,20.50
2019-03-29T04:43:29.645Z,21.00
2019-03-29T04:45:58.051Z,21.60
2019-03-29T04:48:26.472Z,21.23
2019-03-29T04:50:55.033Z,19.73
2019-03-29T04:53:23.438Z,20.80
2019-03-29T04:55:51.874Z,22.60
2019-03-29T04:58:20.277Z,19.80
2019-03-29T05:00:48.744Z,22.43
2019-03-29T05:03:17.866Z,20.20
2019-03-29T05:05:46.247Z,19.20
2019-03-29T05:08:14.681Z,19.43
2019-03-29T05:10:43.125Z,20.77
2019-03-29T05:13:11.601Z,20.33
2019-03-29T05:15:40.023Z,20.40
2019-03-29T05:18:08.447Z,19.60
2019-03-29T05:20:36.857Z,19.40
2019-03-29T05:23:05.327Z,19.00
2019-03-29T05:25:33.757Z,20.43
2019-03-29T05:28:02.206Z,21.33
2019-03-29T05:30:30.644Z,19.47
2019-03-29T05:32:59.219Z,20.07
2019-03-29T05:35:27.666Z,19.63
2019-03-29T05:37:56.057Z,19.43
2019-03-29T05:40:34.714Z,20.07
2019-03-29T05:42:54.604Z,20.30
2019-03-29T05:45:23.011Z,19.63
2019-03-29T05:47:51.450Z,19.70
2019-03-29T05:50:20.347Z,20.37
2019-03-29T05:52:48.807Z,19.37
2019-03-29T05:55:17.221Z,21.10
2019-03-29T05:57:45.622Z,19.90
2019-03-29T06:00:15.839Z,20.13
2019-03-29T06:02:44.247Z,19.30
2019-03-29T06:05:12.672Z,20.33
2019-03-29T06:07:41.076Z,19.37
2019-03-29T06:10:09.706Z,18.97
2019-03-29T06:12:38.534Z,19.33
2019-03-29T06:15:07.506Z,19.43
2019-03-29T06:17:48.066Z,19.40
2019-03-29T06:20:08.045Z,19.67
2019-03-29T06:22:36.468Z,19.50
2019-03-29T06:25:07.123Z,19.40
2019-03-29T06:27:35.520Z,19.13
2019-03-29T06:30:05.976Z,19.33
2019-03-29T06:32:34.465Z,20.13
2019-03-29T06:35:03.048Z,20.17
2019-03-29T06:37:33.206Z,20.07
2019-03-29T06:40:01.839Z,20.43
2019-03-29T06:42:30.288Z,20.17
2019-03-29T06:44:58.733Z,20.80
2019-03-29T06:47:27.125Z,20.13
2019-03-29T06:49:55.602Z,22.20
2019-03-29T06:52:24.085Z,20.50
2019-03-29T06:54:52.491Z,22.20
2019-03-29T06:57:20.983Z,21.20
2019-03-29T06:59:49.384Z,22.33
2019-03-29T07:02:17.892Z,21.90
2019-03-29T07:04:46.302Z,21.40
2019-03-29T07:07:14.718Z,25.30
2019-03-29T07:09:43.114Z,29.57
2019-03-29T07:12:11.528Z,25.33
2019-03-29T07:14:39.964Z,21.00
2019-03-29T07:17:10.292Z,20.00
2019-03-29T07:19:38.523Z,19.63
2019-03-29T07:22:06.948Z,23.70
2019-03-29T07:24:35.389Z,25.60
2019-03-29T07:27:03.824Z,19.40
2019-03-29T07:29:32.383Z,17.60
2019-03-29T07:32:00.819Z,19.83
2019-03-29T07:34:29.230Z,14.73
2019-03-29T07:36:57.649Z,15.33
2019-03-29T07:39:26.960Z,16.07
2019-03-29T07:41:55.404Z,15.33
2019-03-29T07:44:23.817Z,13.53
2019-03-29T07:46:52.298Z,13.50
2019-03-29T07:49:20.696Z,15.77
2019-03-29T07:51:49.140Z,15.70
2019-03-29T07:54:17.519Z,14.43
2019-03-29T07:56:45.919Z,13.83
2019-03-29T07:59:15.999Z,14.20
2019-03-29T08:01:44.414Z,14.50
2019-03-29T08:04:12.839Z,12.33
2019-03-29T08:06:41.245Z,12.00
2019-03-29T08:09:21.570Z,11.47
2019-03-29T08:11:46.289Z,12.87
2019-03-29T08:14:10.053Z,11.80
2019-03-29T08:16:38.446Z,11.50
2019-03-29T08:19:06.881Z,11.27
2019-03-29T08:21:35.281Z,11.20
2019-03-29T08:24:03.772Z,11.60
2019-03-29T08:26:32.192Z,11.03
2019-03-29T08:29:00.617Z,11.10
2019-03-29T08:31:29.027Z,11.20
2019-03-29T08:33:57.469Z,11.33
2019-03-29T08:36:25.880Z,11.03
2019-03-29T08:38:54.312Z,11.07
2019-03-29T08:41:22.735Z,11.57
2019-03-29T08:43:51.172Z,11.03
2019-03-29T08:46:19.594Z,10.43
2019-03-29T08:48:48.051Z,10.33
2019-03-29T08:51:16.532Z,10.70
2019-03-29T08:53:45.015Z,11.30
2019-03-29T08:56:13.932Z,12.30
2019-03-29T08:58:42.342Z,12.50
2019-03-29T09:01:10.825Z,11.30
2019-03-29T09:03:39.344Z,12.10
2019-03-29T09:06:07.890Z,12.27
2019-03-29T09:08:36.322Z,12.23
2019-03-29T09:11:07.589Z,12.57
2019-03-29T09:13:35.110Z,12.50
2019-03-29T09:16:03.614Z,13.20
2019-03-29T09:18:32.028Z,13.83
2019-03-29T09:21:00.527Z,12.70
2019-03-29T09:23:30.306Z,12.40
2019-03-29T09:25:59.018Z,11.97
2019-03-29T09:28:27.449Z,11.73
2019-03-29T09:30:56.738Z,13.63
2019-03-29T09:33:25.334Z,12.90
2019-03-29T09:35:53.761Z,13.30
2019-03-29T09:38:22.274Z,12.27
2019-03-29T09:40:58.789Z,12.47
2019-03-29T09:43:21.230Z,12.77
2019-03-29T09:45:49.739Z,13.40
2019-03-29T09:48:18.142Z,12.43
2019-03-29T09:50:50.443Z,12.77
2019-03-29T09:53:16.817Z,13.03
2019-03-29T09:55:45.862Z,11.87
2019-03-29T09:58:16.584Z,12.00
2019-03-29T10:00:44.694Z,9.30
2019-03-29T10:03:13.145Z,10.00
2019-03-29T10:05:41.577Z,10.60
2019-03-29T10:08:10.052Z,11.87
2019-03-29T10:10:38.478Z,11.13
2019-03-29T10:13:07.071Z,9.87
2019-03-29T10:15:35.510Z,10.87
2019-03-29T10:18:03.905Z,9.70
2019-03-29T10:20:32.306Z,9.17
2019-03-29T10:23:00.717Z,8.87
2019-03-29T10:25:29.136Z,9.80
2019-03-29T10:27:57.542Z,8.67
2019-03-29T10:30:46.527Z,8.10
2019-03-29T10:33:14.294Z,8.87
2019-03-29T10:35:51.621Z,8.13
2019-03-29T10:38:13.120Z,8.77
2019-03-29T10:40:41.661Z,8.10
2019-03-29T10:43:10.351Z,7.90
2019-03-29T10:45:40.649Z,7.40
2019-03-29T10:48:09.141Z,7.90
2019-03-29T10:50:37.550Z,8.77
2019-03-29T10:53:06.122Z,8.67
2019-03-29T10:55:34.611Z,8.00
2019-03-29T10:58:02.992Z,7.33
2019-03-29T11:00:36.781Z,8.30
2019-03-29T11:03:06.125Z,8.40
2019-03-29T11:05:34.632Z,7.10
2019-03-29T11:08:03.190Z,8.67
2019-03-29T11:10:34.304Z,9.20
2019-03-29T11:13:12.724Z,8.20
2019-03-29T11:15:33.465Z,7.37
2019-03-29T11:18:01.869Z,8.23
2019-03-29T11:20:30.523Z,7.50
2019-03-29T11:22:58.983Z,7.77
2019-03-29T11:25:27.509Z,9.30
2019-03-29T11:27:56.010Z,7.90
2019-03-29T11:30:24.526Z,7.90
2019-03-29T11:32:52.978Z,7.63
2019-03-29T11:35:21.389Z,7.40
2019-03-29T11:37:49.812Z,7.80
2019-03-29T11:40:18.462Z,8.10
2019-03-29T11:42:46.941Z,8.63
2019-03-29T11:45:15.419Z,7.80
2019-03-29T11:47:43.914Z,9.07
2019-03-29T11:50:12.701Z,8.33
2019-03-29T11:52:41.287Z,7.90
2019-03-29T11:55:09.779Z,8.90
2019-03-29T11:57:38.186Z,8.13
2019-03-29T12:00:09.446Z,8.13
2019-03-29T12:02:37.862Z,8.10
2019-03-29T12:05:07.663Z,8.00
2019-03-29T12:07:36.134Z,7.53
2019-03-29T12:10:06.374Z,7.67
2019-03-29T12:12:34.879Z,7.57
2019-03-29T12:15:03.520Z,7.60
2019-03-29T12:17:31.886Z,6.87
2019-03-29T12:20:00.511Z,6.57
2019-03-29T12:22:28.873Z,7.00
2019-03-29T12:24:57.288Z,6.63
2019-03-29T12:27:25.696Z,5.60
2019-03-29T12:29:54.123Z,5.47
2019-03-29T12:32:22.555Z,5.30
2019-03-29T12:34:50.962Z,5.97
2019-03-29T12:37:19.449Z,5.07
2019-03-29T12:39:47.879Z,6.03
2019-03-29T12:42:16.272Z,4.80
2019-03-29T12:44:44.711Z,5.10
2019-03-29T12:47:13.187Z,4.70
2019-03-29T12:49:41.692Z,5.07
2019-03-29T12:52:10.091Z,4.60
2019-03-29T12:54:38.507Z,5.30
2019-03-29T12:57:07.269Z,4.37
2019-03-29T12:59:35.827Z,4.80
2019-03-29T13:02:04.498Z,4.13
2019-03-29T13:04:32.932Z,4.33
2019-03-29T13:07:01.351Z,3.87
2019-03-29T13:09:29.805Z,4.60
2019-03-29T13:11:58.262Z,5.00
2019-03-29T13:14:26.737Z,4.33
2019-03-29T13:16:55.234Z,5.97
2019-03-29T13:19:23.646Z,4.13
2019-03-29T13:21:52.065Z,3.87
2019-03-29T13:24:20.554Z,5.40
2019-03-29T13:26:48.995Z,4.80
2019-03-29T13:29:17.480Z,5.00
2019-03-29T13:31:45.952Z,4.53
2019-03-29T13:34:14.462Z,4.53
2019-03-29T13:36:42.856Z,4.93
2019-03-29T13:39:11.446Z,4.23
2019-03-29T13:41:39.842Z,4.47
2019-03-29T13:44:08.286Z,4.27
2019-03-29T13:46:36.706Z,4.27
2019-03-29T13:49:05.228Z,4.33
2019-03-29T13:51:33.616Z,4.00
2019-03-29T13:54:02.027Z,3.80
2019-03-29T13:56:30.456Z,4.40
2019-03-29T13:58:58.990Z,5.30
2019-03-29T14:01:27.491Z,4.40
2019-03-29T14:03:55.883Z,4.47
2019-03-29T14:06:24.290Z,4.60
2019-03-29T14:08:52.687Z,4.63
2019-03-29T14:11:21.105Z,4.50
2019-03-29T14:13:49.579Z,4.20
2019-03-29T14:16:17.997Z,4.10
2019-03-29T14:18:46.422Z,3.50
2019-03-29T14:21:14.820Z,3.53
2019-03-29T14:23:43.261Z,3.43
2019-03-29T14:26:11.678Z,3.20
2019-03-29T14:28:40.082Z,3.07
2019-03-29T14:31:08.621Z,3.73
2019-03-29T14:33:37.054Z,3.10
2019-03-29T14:36:05.447Z,3.60
2019-03-29T14:38:33.871Z,3.00
2019-03-29T14:41:02.293Z,3.33
2019-03-29T14:43:30.785Z,3.37
2019-03-29T14:45:59.219Z,3.40
2019-03-29T14:48:27.655Z,4.27
2019-03-29T14:50:56.061Z,3.40
2019-03-29T14:53:24.486Z,4.13
2019-03-29T14:55:52.881Z,3.50
2019-03-29T14:58:21.305Z,3.83
2019-03-29T15:00:49.701Z,3.70
2019-03-29T15:03:18.102Z,3.07
2019-03-29T15:05:46.607Z,3.23
2019-03-29T15:08:15.016Z,3.50
2019-03-29T15:10:45.775Z,3.70
2019-03-29T15:13:13.582Z,3.53
2019-03-29T15:15:41.994Z,3.20
2019-03-29T15:18:10.386Z,3.10
2019-03-29T15:20:52.143Z,3.27
2019-03-29T15:23:08.963Z,3.07
2019-03-29T15:25:40.452Z,3.40
2019-03-29T15:28:07.610Z,2.47
2019-03-29T15:30:36.107Z,2.77
2019-03-29T15:33:04.536Z,3.23
2019-03-29T15:35:33.010Z,3.20
2019-03-29T15:38:01.486Z,3.17
2019-03-29T15:40:30.003Z,2.73
2019-03-29T15:42:58.491Z,3.50
2019-03-29T15:45:26.957Z,3.10
2019-03-29T15:47:55.355Z,3.63
2019-03-29T15:50:23.824Z,3.13
2019-03-29T15:52:52.250Z,2.70
2019-03-29T15:55:20.673Z,3.07
2019-03-29T15:57:49.089Z,2.97
2019-03-29T16:00:17.722Z,2.73
2019-03-29T16:02:46.130Z,3.70
2019-03-29T16:05:14.574Z,3.90
2019-03-29T16:07:43.119Z,3.10
2019-03-29T16:10:11.697Z,2.77
2019-03-29T16:12:40.149Z,3.00
2019-03-29T16:15:08.702Z,3.00
2019-03-29T16:17:37.192Z,3.20
2019-03-29T16:20:06.545Z,3.57
2019-03-29T16:22:35.233Z,3.93
2019-03-29T16:25:07.728Z,3.37
2019-03-29T16:27:36.243Z,3.40
2019-03-29T16:30:06.889Z,4.07
2019-03-29T16:32:36.139Z,3.83
2019-03-29T16:35:06.922Z,3.77
2019-03-29T16:37:35.428Z,2.90
2019-03-29T16:40:07.663Z,3.40
2019-03-29T16:42:36.245Z,3.10
2019-03-29T16:45:07.081Z,3.13
2019-03-29T16:47:35.540Z,3.10
2019-03-29T16:50:08.465Z,3.10
2019-03-29T16:52:36.887Z,3.63
2019-03-29T16:55:13.750Z,2.80
2019-03-29T16:57:37.565Z,3.03
2019-03-29T17:00:12.548Z,2.80
2019-03-29T17:02:41.455Z,2.43
2019-03-29T17:05:10.128Z,2.93
2019-03-29T17:07:38.545Z,4.40
2019-03-29T17:10:08.080Z,4.33
2019-03-29T17:12:36.501Z,3.90
2019-03-29T17:15:06.558Z,3.70
2019-03-29T17:17:35.448Z,3.27
2019-03-29T17:20:06.298Z,3.23
2019-03-29T17:22:35.435Z,3.17
2019-03-29T17:25:06.107Z,3.70
2019-03-29T17:27:34.577Z,3.17
2019-03-29T17:30:03.448Z,3.07
2019-03-29T17:32:31.897Z,2.83
2019-03-29T17:35:00.391Z,3.00
2019-03-29T17:37:28.744Z,3.00
2019-03-29T17:39:57.270Z,3.00
2019-03-29T17:42:25.681Z,3.60
2019-03-29T17:44:54.096Z,3.23
2019-03-29T17:47:22.597Z,2.77
2019-03-29T17:49:51.008Z,3.20
2019-03-29T17:52:19.427Z,4.57
2019-03-29T17:54:47.847Z,13.53
2019-03-29T17:57:16.275Z,6.10
2019-03-29T17:59:44.674Z,3.40
2019-03-29T18:02:13.154Z,2.53
2019-03-29T18:04:41.651Z,2.90
2019-03-29T18:07:10.078Z,3.13
2019-03-29T18:09:38.506Z,3.20
2019-03-29T18:12:06.920Z,2.73
2019-03-29T18:14:35.319Z,2.97
2019-03-29T18:17:03.807Z,2.57
2019-03-29T18:19:32.251Z,2.70
2019-03-29T18:22:00.716Z,2.60
2019-03-29T18:24:29.107Z,3.37
2019-03-29T18:26:57.594Z,2.97
2019-03-29T18:29:26.008Z,2.83
2019-03-29T18:31:54.591Z,3.27
2019-03-29T18:34:24.534Z,3.63
2019-03-29T18:36:54.326Z,3.40
2019-03-29T18:39:23.477Z,3.20
2019-03-29T18:41:52.234Z,2.83
2019-03-29T18:44:20.975Z,2.60
2019-03-29T18:46:51.230Z,2.63
2019-03-29T18:49:19.637Z,2.53
2019-03-29T18:51:48.355Z,2.50
2019-03-29T18:54:16.770Z,2.60
2019-03-29T18:56:45.178Z,3.40
2019-03-29T18:59:13.573Z,3.40
2019-03-29T19:01:41.991Z,3.30
2019-03-29T19:04:10.397Z,3.37
2019-03-29T19:06:39.451Z,2.97
2019-03-29T19:09:08.003Z,3.40
2019-03-29T19:11:36.968Z,2.90
2019-03-29T19:14:05.439Z,3.53
2019-03-29T19:16:33.852Z,3.13
2019-03-29T19:19:09.903Z,2.63
2019-03-29T19:21:32.637Z,2.63
2019-03-29T19:24:01.081Z,2.67
2019-03-29T19:26:29.557Z,2.63
2019-03-29T19:28:57.959Z,3.70
2019-03-29T19:31:26.373Z,3.47
2019-03-29T19:33:54.769Z,2.87
2019-03-29T19:36:23.199Z,3.40
2019-03-29T19:38:52.425Z,3.00
2019-03-29T19:41:20.826Z,3.10
2019-03-29T19:43:49.254Z,2.90
2019-03-29T19:46:17.708Z,3.90
2019-03-29T19:48:46.105Z,3.50
2019-03-29T19:51:14.509Z,2.97
2019-03-29T19:53:43.029Z,2.97
2019-03-29T19:56:11.398Z,3.10
2019-03-29T19:58:39.850Z,3.07
2019-03-29T20:01:08.226Z,2.83
2019-03-29T20:03:36.665Z,3.20
2019-03-29T20:06:05.111Z,3.00
2019-03-29T20:08:33.513Z,2.90
2019-03-29T20:11:02.052Z,3.00
2019-03-29T20:13:30.471Z,3.10
2019-03-29T20:15:58.904Z,2.83
2019-03-29T20:18:27.315Z,3.50
2019-03-29T20:20:55.716Z,3.40
2019-03-29T20:23:24.184Z,4.00
2019-03-29T20:25:52.571Z,3.47
2019-03-29T20:28:20.999Z,4.20
2019-03-29T20:30:49.411Z,3.30
2019-03-29T20:33:17.854Z,3.27
2019-03-29T20:35:46.321Z,5.80
2019-03-29T20:38:14.844Z,5.30
2019-03-29T20:40:43.308Z,3.77
2019-03-29T20:43:11.729Z,4.13
2019-03-29T20:45:40.208Z,3.60
2019-03-29T20:48:08.644Z,3.90
2019-03-29T20:50:37.144Z,3.70
2019-03-29T20:53:05.531Z,4.90
2019-03-29T20:55:34.174Z,4.67
2019-03-29T20:58:02.602Z,4.30
2019-03-29T21:00:33.879Z,4.90
2019-03-29T21:03:02.296Z,5.37
2019-03-29T21:05:30.720Z,9.40
2019-03-29T21:07:59.201Z,6.47
2019-03-29T21:10:27.653Z,3.90
2019-03-29T21:12:56.248Z,3.40
2019-03-29T21:15:24.802Z,4.33
2019-03-29T21:17:57.063Z,3.83
2019-03-29T21:20:23.423Z,3.70
2019-03-29T21:22:51.925Z,4.23
2019-03-29T21:25:20.371Z,3.40
2019-03-29T21:27:48.800Z,3.50
2019-03-29T21:30:17.553Z,3.50
2019-03-29T21:32:46.013Z,3.67
2019-03-29T21:35:14.563Z,3.63
2019-03-29T21:37:42.968Z,3.67
2019-03-29T21:40:13.484Z,3.97
2019-03-29T21:42:41.853Z,3.67
2019-03-29T21:45:10.704Z,3.70
2019-03-29T21:47:39.182Z,3.27
2019-03-29T21:50:10.433Z,3.47
2019-03-29T21:52:38.913Z,2.97
2019-03-29T21:55:08.854Z,3.50
2019-03-29T21:57:37.279Z,3.43
2019-03-29T22:00:08.669Z,3.67
2019-03-29T22:02:37.085Z,3.43
2019-03-29T22:05:10.149Z,3.50
2019-03-29T22:07:36.879Z,4.40
2019-03-29T22:10:08.548Z,3.70
2019-03-29T22:12:37.114Z,3.60
2019-03-29T22:15:08.365Z,3.43
2019-03-29T22:17:36.917Z,3.97
2019-03-29T22:20:09.477Z,3.10
2019-03-29T22:22:38.178Z,4.10
2019-03-29T22:25:08.241Z,4.23
2019-03-29T22:27:36.703Z,3.67
2019-03-29T22:30:08.183Z,4.53
2019-03-29T22:32:36.588Z,3.90
2019-03-29T22:35:07.447Z,3.80
2019-03-29T22:37:35.882Z,4.63
2019-03-29T22:40:09.231Z,3.90
2019-03-29T22:42:45.250Z,4.13
2019-03-29T22:45:14.354Z,3.60
2019-03-29T22:47:42.727Z,4.77
2019-03-29T22:50:14.855Z,4.00
2019-03-29T22:52:43.244Z,3.60
2019-03-29T22:55:11.731Z,3.93
2019-03-29T22:57:40.126Z,7.60
2019-03-29T23:00:14.139Z,4.93
2019-03-29T23:02:42.799Z,4.73
2019-03-29T23:05:11.289Z,4.67
2019-03-29T23:07:39.784Z,5.20
2019-03-29T23:10:08.274Z,3.80
2019-03-29T23:12:36.657Z,4.40
2019-03-29T23:15:07.383Z,4.00
2019-03-29T23:17:35.781Z,3.77
2019-03-29T23:20:05.144Z,3.23
2019-03-29T23:22:33.517Z,3.83
2019-03-29T23:25:01.944Z,3.70
2019-03-29T23:27:30.356Z,3.47
2019-03-29T23:29:58.782Z,4.23
2019-03-29T23:32:27.254Z,4.07
2019-03-29T23:34:55.652Z,3.80
2019-03-29T23:37:24.163Z,4.43
2019-03-29T23:39:52.646Z,3.90
2019-03-29T23:42:21.431Z,4.50
2019-03-29T23:44:49.867Z,4.50
2019-03-29T23:47:18.275Z,4.00
2019-03-29T23:49:46.688Z,4.00
2019-03-29T23:52:15.103Z,4.13
2019-03-29T23:54:43.584Z,3.43
2019-03-29T23:57:12.008Z,4.20
